sensor_id;sensor_type;location;lat;lon;timestamp;P1;durP1;ratioP1;P2;durP2;ratioP2
75589;SDS011;64169;47.240;11.312;2023-03-01T00:01:21;15.27;;;7.35;;
75589;SDS011;64169;47.240;11.312;2023-03-01T00:03:48;15.13;;;6.72;;
75589;SDS011;64169;47.240;11.312;2023-03-01T00:06:15;19.60;;;7.82;;
75589;SDS011;64169;47.240;11.312;2023-03-01T00:08:40;17.42;;;8.13;;
75589;SDS011;64169;47.240;11.312;2023-03-01T00:11:13;16.80;;;7.18;;
75589;SDS011;64169;47.240;11.312;2023-03-01T00:13:42;19.85;;;6.28;;
75589;SDS011;64169;47.240;11.312;2023-03-01T00:16:09;16.30;;;6.82;;
75589;SDS011;64169;47.240;11.312;2023-03-01T00:18:36;20.15;;;7.78;;
75589;SDS011;64169;47.240;11.312;2023-03-01T00:21:01;16.73;;;7.95;;
75589;SDS011;64169;47.240;11.312;2023-03-01T00:23:27;18.45;;;7.50;;
75589;SDS011;64169;47.240;11.312;2023-03-01T00:25:53;19.77;;;9.18;;
75589;SDS011;64169;47.240;11.312;2023-03-01T00:28:19;17.02;;;8.07;;
75589;SDS011;64169;47.240;11.312;2023-03-01T00:30:45;17.40;;;8.18;;
75589;SDS011;64169;47.240;11.312;2023-03-01T00:33:10;19.50;;;7.63;;
75589;SDS011;64169;47.240;11.312;2023-03-01T00:35:36;17.30;;;9.43;;
75589;SDS011;64169;47.240;11.312;2023-03-01T00:38:01;19.65;;;7.78;;
75589;SDS011;64169;47.240;11.312;2023-03-01T00:40:27;20.90;;;9.20;;
75589;SDS011;64169;47.240;11.312;2023-03-01T00:42:53;19.55;;;8.77;;
75589;SDS011;64169;47.240;11.312;2023-03-01T00:45:19;20.35;;;9.38;;
75589;SDS011;64169;47.240;11.312;2023-03-01T00:47:44;20.75;;;8.35;;
75589;SDS011;64169;47.240;11.312;2023-03-01T00:50:10;20.30;;;7.93;;
75589;SDS011;64169;47.240;11.312;2023-03-01T00:52:36;18.92;;;8.93;;
75589;SDS011;64169;47.240;11.312;2023-03-01T00:55:02;19.50;;;9.43;;
75589;SDS011;64169;47.240;11.312;2023-03-01T00:57:28;17.67;;;7.85;;
75589;SDS011;64169;47.240;11.312;2023-03-01T00:59:53;18.45;;;8.35;;
75589;SDS011;64169;47.240;11.312;2023-03-01T01:02:19;20.00;;;8.70;;
75589;SDS011;64169;47.240;11.312;2023-03-01T01:04:45;18.63;;;8.45;;
75589;SDS011;64169;47.240;11.312;2023-03-01T01:07:10;19.45;;;7.70;;
75589;SDS011;64169;47.240;11.312;2023-03-01T01:09:36;18.63;;;8.98;;
75589;SDS011;64169;47.240;11.312;2023-03-01T01:12:02;21.15;;;8.35;;
75589;SDS011;64169;47.240;11.312;2023-03-01T01:14:27;16.02;;;7.38;;
75589;SDS011;64169;47.240;11.312;2023-03-01T01:16:53;18.80;;;7.95;;
75589;SDS011;64169;47.240;11.312;2023-03-01T01:19:18;23.48;;;9.07;;
75589;SDS011;64169;47.240;11.312;2023-03-01T01:21:44;18.25;;;9.18;;
75589;SDS011;64169;47.240;11.312;2023-03-01T01:24:10;19.58;;;9.15;;
75589;SDS011;64169;47.240;11.312;2023-03-01T01:26:36;21.13;;;9.90;;
75589;SDS011;64169;47.240;11.312;2023-03-01T01:29:03;17.33;;;8.13;;
75589;SDS011;64169;47.240;11.312;2023-03-01T01:31:29;19.38;;;8.15;;
75589;SDS011;64169;47.240;11.312;2023-03-01T01:33:56;16.90;;;7.57;;
75589;SDS011;64169;47.240;11.312;2023-03-01T01:36:22;15.98;;;7.72;;
75589;SDS011;64169;47.240;11.312;2023-03-01T01:38:48;18.65;;;8.05;;
75589;SDS011;64169;47.240;11.312;2023-03-01T01:41:14;20.42;;;8.90;;
75589;SDS011;64169;47.240;11.312;2023-03-01T01:48:45;19.70;;;8.27;;
75589;SDS011;64169;47.240;11.312;2023-03-01T01:51:13;25.05;;;9.55;;
75589;SDS011;64169;47.240;11.312;2023-03-01T01:53:43;15.98;;;7.03;;
75589;SDS011;64169;47.240;11.312;2023-03-01T01:56:12;19.23;;;8.55;;
75589;SDS011;64169;47.240;11.312;2023-03-01T01:58:38;15.68;;;7.30;;
75589;SDS011;64169;47.240;11.312;2023-03-01T02:01:04;19.88;;;8.63;;
75589;SDS011;64169;47.240;11.312;2023-03-01T02:03:31;17.55;;;8.20;;
75589;SDS011;64169;47.240;11.312;2023-03-01T02:08:44;19.77;;;7.63;;
75589;SDS011;64169;47.240;11.312;2023-03-01T02:11:11;19.88;;;8.52;;
75589;SDS011;64169;47.240;11.312;2023-03-01T02:13:39;21.67;;;7.22;;
75589;SDS011;64169;47.240;11.312;2023-03-01T02:16:08;21.52;;;8.13;;
75589;SDS011;64169;47.240;11.312;2023-03-01T02:18:34;20.65;;;8.90;;
75589;SDS011;64169;47.240;11.312;2023-03-01T02:23:53;20.35;;;8.43;;
75589;SDS011;64169;47.240;11.312;2023-03-01T02:26:23;18.65;;;7.15;;
75589;SDS011;64169;47.240;11.312;2023-03-01T02:29:02;20.05;;;7.35;;
75589;SDS011;64169;47.240;11.312;2023-03-01T02:31:28;20.10;;;9.23;;
75589;SDS011;64169;47.240;11.312;2023-03-01T02:34:13;17.73;;;7.72;;
75589;SDS011;64169;47.240;11.312;2023-03-01T02:36:44;21.20;;;8.27;;
75589;SDS011;64169;47.240;11.312;2023-03-01T02:39:12;13.98;;;7.63;;
75589;SDS011;64169;47.240;11.312;2023-03-01T02:41:46;18.52;;;9.25;;
75589;SDS011;64169;47.240;11.312;2023-03-01T02:44:12;21.65;;;9.60;;
75589;SDS011;64169;47.240;11.312;2023-03-01T02:46:42;19.25;;;7.07;;
75589;SDS011;64169;47.240;11.312;2023-03-01T02:49:16;25.20;;;10.23;;
75589;SDS011;64169;47.240;11.312;2023-03-01T02:52:01;17.98;;;8.45;;
75589;SDS011;64169;47.240;11.312;2023-03-01T02:57:24;19.73;;;9.32;;
75589;SDS011;64169;47.240;11.312;2023-03-01T02:59:52;20.90;;;8.05;;
75589;SDS011;64169;47.240;11.312;2023-03-01T03:02:29;16.52;;;9.13;;
75589;SDS011;64169;47.240;11.312;2023-03-01T03:05:05;21.95;;;9.60;;
75589;SDS011;64169;47.240;11.312;2023-03-01T03:07:31;20.50;;;9.90;;
75589;SDS011;64169;47.240;11.312;2023-03-01T03:09:59;20.00;;;8.07;;
75589;SDS011;64169;47.240;11.312;2023-03-01T03:12:25;21.20;;;8.88;;
75589;SDS011;64169;47.240;11.312;2023-03-01T03:14:50;24.05;;;10.20;;
75589;SDS011;64169;47.240;11.312;2023-03-01T03:17:16;20.92;;;9.32;;
75589;SDS011;64169;47.240;11.312;2023-03-01T03:19:41;21.70;;;9.40;;
75589;SDS011;64169;47.240;11.312;2023-03-01T03:22:10;16.80;;;7.45;;
75589;SDS011;64169;47.240;11.312;2023-03-01T03:24:36;20.33;;;8.00;;
75589;SDS011;64169;47.240;11.312;2023-03-01T03:27:03;20.67;;;8.73;;
75589;SDS011;64169;47.240;11.312;2023-03-01T03:29:29;18.77;;;7.40;;
75589;SDS011;64169;47.240;11.312;2023-03-01T03:31:54;19.10;;;8.13;;
75589;SDS011;64169;47.240;11.312;2023-03-01T03:34:20;20.42;;;9.52;;
75589;SDS011;64169;47.240;11.312;2023-03-01T03:36:45;20.92;;;8.20;;
75589;SDS011;64169;47.240;11.312;2023-03-01T03:39:10;22.70;;;9.18;;
75589;SDS011;64169;47.240;11.312;2023-03-01T03:41:36;19.38;;;8.48;;
75589;SDS011;64169;47.240;11.312;2023-03-01T03:44:01;19.98;;;9.32;;
75589;SDS011;64169;47.240;11.312;2023-03-01T03:46:27;22.27;;;8.75;;
75589;SDS011;64169;47.240;11.312;2023-03-01T03:48:52;23.33;;;10.05;;
75589;SDS011;64169;47.240;11.312;2023-03-01T03:51:18;18.00;;;7.70;;
75589;SDS011;64169;47.240;11.312;2023-03-01T03:53:43;18.45;;;8.80;;
75589;SDS011;64169;47.240;11.312;2023-03-01T03:56:10;22.05;;;7.82;;
75589;SDS011;64169;47.240;11.312;2023-03-01T03:58:35;22.30;;;8.63;;
75589;SDS011;64169;47.240;11.312;2023-03-01T04:01:01;18.10;;;8.27;;
75589;SDS011;64169;47.240;11.312;2023-03-01T04:03:27;20.75;;;8.98;;
75589;SDS011;64169;47.240;11.312;2023-03-01T04:05:53;21.95;;;7.53;;
75589;SDS011;64169;47.240;11.312;2023-03-01T04:08:20;19.10;;;7.68;;
75589;SDS011;64169;47.240;11.312;2023-03-01T04:10:47;21.70;;;9.05;;
75589;SDS011;64169;47.240;11.312;2023-03-01T04:13:18;19.25;;;7.75;;
75589;SDS011;64169;47.240;11.312;2023-03-01T04:15:46;25.58;;;9.50;;
75589;SDS011;64169;47.240;11.312;2023-03-01T04:18:14;18.52;;;8.02;;
75589;SDS011;64169;47.240;11.312;2023-03-01T04:20:41;18.95;;;8.02;;
75589;SDS011;64169;47.240;11.312;2023-03-01T04:23:07;18.33;;;8.30;;
75589;SDS011;64169;47.240;11.312;2023-03-01T04:25:54;21.38;;;8.52;;
75589;SDS011;64169;47.240;11.312;2023-03-01T04:30:50;21.85;;;8.13;;
75589;SDS011;64169;47.240;11.312;2023-03-01T04:33:16;18.40;;;9.38;;
75589;SDS011;64169;47.240;11.312;2023-03-01T04:35:41;21.10;;;8.43;;
75589;SDS011;64169;47.240;11.312;2023-03-01T04:38:07;19.65;;;9.57;;
75589;SDS011;64169;47.240;11.312;2023-03-01T04:40:33;24.42;;;10.65;;
75589;SDS011;64169;47.240;11.312;2023-03-01T04:42:59;22.13;;;10.02;;
75589;SDS011;64169;47.240;11.312;2023-03-01T04:45:24;21.30;;;9.20;;
75589;SDS011;64169;47.240;11.312;2023-03-01T04:47:49;19.00;;;9.52;;
75589;SDS011;64169;47.240;11.312;2023-03-01T04:50:18;18.80;;;8.30;;
75589;SDS011;64169;47.240;11.312;2023-03-01T04:52:45;20.15;;;9.20;;
75589;SDS011;64169;47.240;11.312;2023-03-01T04:55:11;24.60;;;10.55;;
75589;SDS011;64169;47.240;11.312;2023-03-01T04:57:36;18.20;;;7.95;;
75589;SDS011;64169;47.240;11.312;2023-03-01T05:00:03;20.08;;;8.60;;
75589;SDS011;64169;47.240;11.312;2023-03-01T05:02:52;22.83;;;9.15;;
75589;SDS011;64169;47.240;11.312;2023-03-01T05:05:20;20.95;;;8.50;;
75589;SDS011;64169;47.240;11.312;2023-03-01T05:07:58;21.70;;;9.25;;
75589;SDS011;64169;47.240;11.312;2023-03-01T05:10:25;16.05;;;8.82;;
75589;SDS011;64169;47.240;11.312;2023-03-01T05:12:51;20.13;;;9.82;;
75589;SDS011;64169;47.240;11.312;2023-03-01T05:15:18;18.58;;;9.45;;
75589;SDS011;64169;47.240;11.312;2023-03-01T05:17:43;20.30;;;8.65;;
75589;SDS011;64169;47.240;11.312;2023-03-01T05:20:09;23.52;;;8.90;;
75589;SDS011;64169;47.240;11.312;2023-03-01T05:22:35;22.67;;;9.40;;
75589;SDS011;64169;47.240;11.312;2023-03-01T05:25:01;23.02;;;10.52;;
75589;SDS011;64169;47.240;11.312;2023-03-01T05:27:28;22.85;;;8.73;;
75589;SDS011;64169;47.240;11.312;2023-03-01T05:29:54;24.23;;;8.95;;
75589;SDS011;64169;47.240;11.312;2023-03-01T05:32:20;20.67;;;8.90;;
75589;SDS011;64169;47.240;11.312;2023-03-01T05:34:45;25.98;;;10.63;;
75589;SDS011;64169;47.240;11.312;2023-03-01T05:37:11;22.88;;;8.90;;
75589;SDS011;64169;47.240;11.312;2023-03-01T05:39:37;21.95;;;9.45;;
75589;SDS011;64169;47.240;11.312;2023-03-01T05:42:02;19.00;;;9.27;;
75589;SDS011;64169;47.240;11.312;2023-03-01T05:44:28;25.35;;;10.55;;
75589;SDS011;64169;47.240;11.312;2023-03-01T05:46:54;21.65;;;9.70;;
75589;SDS011;64169;47.240;11.312;2023-03-01T05:49:20;20.10;;;9.85;;
75589;SDS011;64169;47.240;11.312;2023-03-01T05:51:49;23.88;;;9.38;;
75589;SDS011;64169;47.240;11.312;2023-03-01T05:54:16;18.63;;;8.57;;
75589;SDS011;64169;47.240;11.312;2023-03-01T05:56:42;22.15;;;9.63;;
75589;SDS011;64169;47.240;11.312;2023-03-01T05:59:08;23.17;;;10.68;;
75589;SDS011;64169;47.240;11.312;2023-03-01T06:01:34;17.48;;;8.65;;
75589;SDS011;64169;47.240;11.312;2023-03-01T06:04:00;19.55;;;9.48;;
75589;SDS011;64169;47.240;11.312;2023-03-01T06:06:26;23.50;;;10.23;;
75589;SDS011;64169;47.240;11.312;2023-03-01T06:08:52;19.90;;;8.48;;
75589;SDS011;64169;47.240;11.312;2023-03-01T06:11:18;25.08;;;9.98;;
75589;SDS011;64169;47.240;11.312;2023-03-01T06:13:43;21.10;;;9.38;;
75589;SDS011;64169;47.240;11.312;2023-03-01T06:16:09;24.75;;;7.97;;
75589;SDS011;64169;47.240;11.312;2023-03-01T06:18:35;17.73;;;9.20;;
75589;SDS011;64169;47.240;11.312;2023-03-01T06:21:01;22.23;;;8.88;;
75589;SDS011;64169;47.240;11.312;2023-03-01T06:23:26;20.10;;;9.10;;
75589;SDS011;64169;47.240;11.312;2023-03-01T06:25:52;19.48;;;9.95;;
75589;SDS011;64169;47.240;11.312;2023-03-01T06:28:17;22.70;;;10.13;;
75589;SDS011;64169;47.240;11.312;2023-03-01T06:30:43;21.23;;;9.35;;
75589;SDS011;64169;47.240;11.312;2023-03-01T06:33:09;19.58;;;8.27;;
75589;SDS011;64169;47.240;11.312;2023-03-01T06:35:34;18.25;;;8.07;;
75589;SDS011;64169;47.240;11.312;2023-03-01T06:38:00;20.60;;;9.02;;
75589;SDS011;64169;47.240;11.312;2023-03-01T06:40:27;22.85;;;8.93;;
75589;SDS011;64169;47.240;11.312;2023-03-01T06:42:53;19.42;;;8.95;;
75589;SDS011;64169;47.240;11.312;2023-03-01T06:45:19;18.90;;;7.40;;
75589;SDS011;64169;47.240;11.312;2023-03-01T06:47:45;25.77;;;9.43;;
75589;SDS011;64169;47.240;11.312;2023-03-01T06:50:10;22.55;;;9.82;;
75589;SDS011;64169;47.240;11.312;2023-03-01T06:52:36;20.45;;;8.98;;
75589;SDS011;64169;47.240;11.312;2023-03-01T06:55:02;19.42;;;7.72;;
75589;SDS011;64169;47.240;11.312;2023-03-01T06:57:27;17.13;;;8.30;;
75589;SDS011;64169;47.240;11.312;2023-03-01T06:59:53;23.85;;;10.13;;
75589;SDS011;64169;47.240;11.312;2023-03-01T07:02:18;16.85;;;8.57;;
75589;SDS011;64169;47.240;11.312;2023-03-01T07:04:44;15.13;;;7.72;;
75589;SDS011;64169;47.240;11.312;2023-03-01T07:07:10;23.92;;;9.82;;
75589;SDS011;64169;47.240;11.312;2023-03-01T07:09:35;18.08;;;8.70;;
75589;SDS011;64169;47.240;11.312;2023-03-01T07:12:01;21.33;;;8.05;;
75589;SDS011;64169;47.240;11.312;2023-03-01T07:14:26;17.67;;;8.75;;
75589;SDS011;64169;47.240;11.312;2023-03-01T07:16:52;17.85;;;8.60;;
75589;SDS011;64169;47.240;11.312;2023-03-01T07:19:18;17.42;;;7.70;;
75589;SDS011;64169;47.240;11.312;2023-03-01T07:21:44;19.23;;;8.45;;
75589;SDS011;64169;47.240;11.312;2023-03-01T07:24:09;19.98;;;7.68;;
75589;SDS011;64169;47.240;11.312;2023-03-01T07:26:35;17.00;;;6.95;;
75589;SDS011;64169;47.240;11.312;2023-03-01T07:29:01;14.77;;;6.82;;
75589;SDS011;64169;47.240;11.312;2023-03-01T07:31:30;16.83;;;7.55;;
75589;SDS011;64169;47.240;11.312;2023-03-01T07:33:55;21.35;;;7.85;;
75589;SDS011;64169;47.240;11.312;2023-03-01T07:36:21;17.60;;;8.13;;
75589;SDS011;64169;47.240;11.312;2023-03-01T07:38:47;17.75;;;7.45;;
75589;SDS011;64169;47.240;11.312;2023-03-01T07:41:12;17.40;;;8.25;;
75589;SDS011;64169;47.240;11.312;2023-03-01T07:43:38;17.77;;;8.90;;
75589;SDS011;64169;47.240;11.312;2023-03-01T07:46:03;17.77;;;7.93;;
75589;SDS011;64169;47.240;11.312;2023-03-01T07:48:30;15.82;;;7.18;;
75589;SDS011;64169;47.240;11.312;2023-03-01T07:50:59;16.80;;;6.95;;
75589;SDS011;64169;47.240;11.312;2023-03-01T07:53:25;16.98;;;7.93;;
75589;SDS011;64169;47.240;11.312;2023-03-01T07:55:59;14.13;;;6.47;;
75589;SDS011;64169;47.240;11.312;2023-03-01T07:58:26;18.58;;;6.47;;
75589;SDS011;64169;47.240;11.312;2023-03-01T08:00:51;14.55;;;6.25;;
75589;SDS011;64169;47.240;11.312;2023-03-01T08:03:16;15.13;;;6.45;;
75589;SDS011;64169;47.240;11.312;2023-03-01T08:05:42;15.80;;;6.25;;
75589;SDS011;64169;47.240;11.312;2023-03-01T08:08:07;12.98;;;5.97;;
75589;SDS011;64169;47.240;11.312;2023-03-01T08:10:33;10.90;;;5.28;;
75589;SDS011;64169;47.240;11.312;2023-03-01T08:12:58;15.13;;;5.55;;
75589;SDS011;64169;47.240;11.312;2023-03-01T08:15:23;13.73;;;5.00;;
75589;SDS011;64169;47.240;11.312;2023-03-01T08:17:49;16.65;;;5.95;;
75589;SDS011;64169;47.240;11.312;2023-03-01T08:20:15;14.65;;;6.88;;
75589;SDS011;64169;47.240;11.312;2023-03-01T08:22:41;13.55;;;5.18;;
75589;SDS011;64169;47.240;11.312;2023-03-01T08:25:07;11.75;;;4.78;;
75589;SDS011;64169;47.240;11.312;2023-03-01T08:27:32;13.55;;;5.47;;
75589;SDS011;64169;47.240;11.312;2023-03-01T08:29:58;14.50;;;5.88;;
75589;SDS011;64169;47.240;11.312;2023-03-01T08:32:23;12.38;;;5.45;;
75589;SDS011;64169;47.240;11.312;2023-03-01T08:34:49;12.23;;;5.35;;
75589;SDS011;64169;47.240;11.312;2023-03-01T08:37:14;10.60;;;5.35;;
75589;SDS011;64169;47.240;11.312;2023-03-01T08:39:39;11.05;;;4.63;;
75589;SDS011;64169;47.240;11.312;2023-03-01T08:42:05;12.40;;;5.72;;
75589;SDS011;64169;47.240;11.312;2023-03-01T08:44:30;10.57;;;4.65;;
75589;SDS011;64169;47.240;11.312;2023-03-01T08:46:56;12.55;;;5.22;;
75589;SDS011;64169;47.240;11.312;2023-03-01T08:49:22;13.85;;;5.70;;
75589;SDS011;64169;47.240;11.312;2023-03-01T08:51:48;13.70;;;5.80;;
75589;SDS011;64169;47.240;11.312;2023-03-01T08:54:15;13.63;;;5.63;;
75589;SDS011;64169;47.240;11.312;2023-03-01T08:56:43;12.25;;;5.22;;
75589;SDS011;64169;47.240;11.312;2023-03-01T08:59:09;12.13;;;5.90;;
75589;SDS011;64169;47.240;11.312;2023-03-01T09:01:38;12.95;;;5.95;;
75589;SDS011;64169;47.240;11.312;2023-03-01T09:04:05;13.65;;;5.75;;
75589;SDS011;64169;47.240;11.312;2023-03-01T09:06:31;14.23;;;4.95;;
75589;SDS011;64169;47.240;11.312;2023-03-01T09:08:58;15.70;;;5.85;;
75589;SDS011;64169;47.240;11.312;2023-03-01T09:11:24;11.43;;;5.13;;
75589;SDS011;64169;47.240;11.312;2023-03-01T09:13:49;14.65;;;6.28;;
75589;SDS011;64169;47.240;11.312;2023-03-01T09:16:16;15.85;;;5.80;;
75589;SDS011;64169;47.240;11.312;2023-03-01T09:18:44;13.63;;;6.05;;
75589;SDS011;64169;47.240;11.312;2023-03-01T09:21:11;13.77;;;6.05;;
75589;SDS011;64169;47.240;11.312;2023-03-01T09:23:47;15.35;;;5.68;;
75589;SDS011;64169;47.240;11.312;2023-03-01T09:26:14;13.60;;;5.15;;
75589;SDS011;64169;47.240;11.312;2023-03-01T09:28:44;14.57;;;5.30;;
75589;SDS011;64169;47.240;11.312;2023-03-01T09:31:09;11.35;;;5.05;;
75589;SDS011;64169;47.240;11.312;2023-03-01T09:33:37;15.77;;;5.80;;
75589;SDS011;64169;47.240;11.312;2023-03-01T09:36:04;13.65;;;6.00;;
75589;SDS011;64169;47.240;11.312;2023-03-01T09:38:32;17.38;;;7.93;;
75589;SDS011;64169;47.240;11.312;2023-03-01T09:40:57;16.92;;;6.90;;
75589;SDS011;64169;47.240;11.312;2023-03-01T09:45:55;19.00;;;8.05;;
75589;SDS011;64169;47.240;11.312;2023-03-01T09:48:26;14.25;;;5.95;;
75589;SDS011;64169;47.240;11.312;2023-03-01T09:50:52;14.60;;;5.95;;
75589;SDS011;64169;47.240;11.312;2023-03-01T09:53:21;18.17;;;6.65;;
75589;SDS011;64169;47.240;11.312;2023-03-01T09:58:49;14.50;;;5.45;;
75589;SDS011;64169;47.240;11.312;2023-03-01T10:01:27;15.52;;;5.75;;
75589;SDS011;64169;47.240;11.312;2023-03-01T10:09:28;18.40;;;6.35;;
75589;SDS011;64169;47.240;11.312;2023-03-01T10:11:57;13.98;;;6.28;;
75589;SDS011;64169;47.240;11.312;2023-03-01T10:14:36;14.35;;;6.28;;
75589;SDS011;64169;47.240;11.312;2023-03-01T10:17:07;12.82;;;4.25;;
75589;SDS011;64169;47.240;11.312;2023-03-01T10:19:41;11.73;;;5.22;;
75589;SDS011;64169;47.240;11.312;2023-03-01T10:22:13;13.05;;;5.65;;
75589;SDS011;64169;47.240;11.312;2023-03-01T10:24:48;12.80;;;5.53;;
75589;SDS011;64169;47.240;11.312;2023-03-01T10:32:59;13.48;;;5.75;;
75589;SDS011;64169;47.240;11.312;2023-03-01T10:35:26;11.20;;;4.85;;
75589;SDS011;64169;47.240;11.312;2023-03-01T10:38:06;10.95;;;4.85;;
75589;SDS011;64169;47.240;11.312;2023-03-01T10:40:36;12.30;;;5.93;;
75589;SDS011;64169;47.240;11.312;2023-03-01T10:43:05;10.77;;;4.45;;
75589;SDS011;64169;47.240;11.312;2023-03-01T10:45:32;10.73;;;5.10;;
75589;SDS011;64169;47.240;11.312;2023-03-01T10:50:37;13.30;;;5.75;;
75589;SDS011;64169;47.240;11.312;2023-03-01T10:53:04;12.10;;;5.22;;
75589;SDS011;64169;47.240;11.312;2023-03-01T10:55:37;12.02;;;5.80;;
75589;SDS011;64169;47.240;11.312;2023-03-01T10:58:07;12.70;;;5.07;;
75589;SDS011;64169;47.240;11.312;2023-03-01T11:00:33;13.65;;;5.80;;
75589;SDS011;64169;47.240;11.312;2023-03-01T11:03:12;12.30;;;5.13;;
75589;SDS011;64169;47.240;11.312;2023-03-01T11:05:56;12.57;;;6.15;;
75589;SDS011;64169;47.240;11.312;2023-03-01T11:13:34;14.80;;;6.70;;
75589;SDS011;64169;47.240;11.312;2023-03-01T11:16:00;11.90;;;5.95;;
75589;SDS011;64169;47.240;11.312;2023-03-01T11:18:28;12.20;;;6.20;;
75589;SDS011;64169;47.240;11.312;2023-03-01T11:20:55;13.40;;;6.13;;
75589;SDS011;64169;47.240;11.312;2023-03-01T11:23:21;14.32;;;6.30;;
75589;SDS011;64169;47.240;11.312;2023-03-01T11:26:00;12.55;;;6.40;;
75589;SDS011;64169;47.240;11.312;2023-03-01T11:28:28;13.25;;;6.93;;
75589;SDS011;64169;47.240;11.312;2023-03-01T11:38:56;12.75;;;5.75;;
75589;SDS011;64169;47.240;11.312;2023-03-01T11:41:26;12.40;;;5.22;;
75589;SDS011;64169;47.240;11.312;2023-03-01T11:46:46;14.40;;;5.95;;
75589;SDS011;64169;47.240;11.312;2023-03-01T11:54:51;13.23;;;6.43;;
75589;SDS011;64169;47.240;11.312;2023-03-01T12:00:36;13.90;;;6.60;;
75589;SDS011;64169;47.240;11.312;2023-03-01T12:08:17;12.38;;;5.43;;
75589;SDS011;64169;47.240;11.312;2023-03-01T12:24:53;13.73;;;6.97;;
75589;SDS011;64169;47.240;11.312;2023-03-01T12:49:16;12.82;;;7.03;;
75589;SDS011;64169;47.240;11.312;2023-03-01T12:51:20;11.90;;;7.00;;
75589;SDS011;64169;47.240;11.312;2023-03-01T12:53:53;14.40;;;7.18;;
75589;SDS011;64169;47.240;11.312;2023-03-01T12:56:21;14.45;;;7.80;;
75589;SDS011;64169;47.240;11.312;2023-03-01T13:12:00;12.60;;;6.80;;
75589;SDS011;64169;47.240;11.312;2023-03-01T13:16:51;12.82;;;6.80;;
75589;SDS011;64169;47.240;11.312;2023-03-01T13:21:44;13.68;;;7.43;;
75589;SDS011;64169;47.240;11.312;2023-03-01T13:34:49;14.95;;;6.65;;
75589;SDS011;64169;47.240;11.312;2023-03-01T13:37:28;13.40;;;7.50;;
75589;SDS011;64169;47.240;11.312;2023-03-01T13:39:59;14.05;;;7.18;;
75589;SDS011;64169;47.240;11.312;2023-03-01T13:42:34;12.05;;;6.25;;
75589;SDS011;64169;47.240;11.312;2023-03-01T13:45:15;13.50;;;7.63;;
75589;SDS011;64169;47.240;11.312;2023-03-01T13:47:43;14.00;;;7.38;;
75589;SDS011;64169;47.240;11.312;2023-03-01T13:50:22;14.13;;;7.28;;
75589;SDS011;64169;47.240;11.312;2023-03-01T13:58:26;13.73;;;7.28;;
75589;SDS011;64169;47.240;11.312;2023-03-01T14:03:21;12.57;;;7.10;;
75589;SDS011;64169;47.240;11.312;2023-03-01T14:06:06;15.68;;;7.57;;
75589;SDS011;64169;47.240;11.312;2023-03-01T14:08:33;13.93;;;7.22;;
75589;SDS011;64169;47.240;11.312;2023-03-01T14:21:29;14.15;;;6.63;;
75589;SDS011;64169;47.240;11.312;2023-03-01T14:23:55;13.32;;;6.97;;
75589;SDS011;64169;47.240;11.312;2023-03-01T14:26:23;12.70;;;6.70;;
75589;SDS011;64169;47.240;11.312;2023-03-01T14:28:49;14.98;;;7.05;;
75589;SDS011;64169;47.240;11.312;2023-03-01T14:34:03;12.73;;;6.35;;
75589;SDS011;64169;47.240;11.312;2023-03-01T14:36:30;12.02;;;6.25;;
75589;SDS011;64169;47.240;11.312;2023-03-01T14:38:57;14.18;;;7.10;;
75589;SDS011;64169;47.240;11.312;2023-03-01T14:41:31;14.13;;;7.65;;
75589;SDS011;64169;47.240;11.312;2023-03-01T14:44:00;12.25;;;6.68;;
75589;SDS011;64169;47.240;11.312;2023-03-01T14:49:01;11.00;;;5.43;;
75589;SDS011;64169;47.240;11.312;2023-03-01T14:51:29;12.15;;;5.88;;
75589;SDS011;64169;47.240;11.312;2023-03-01T14:53:54;12.05;;;6.35;;
75589;SDS011;64169;47.240;11.312;2023-03-01T14:56:20;12.48;;;6.57;;
75589;SDS011;64169;47.240;11.312;2023-03-01T14:58:46;11.40;;;6.43;;
75589;SDS011;64169;47.240;11.312;2023-03-01T15:01:15;11.15;;;5.40;;
75589;SDS011;64169;47.240;11.312;2023-03-01T15:03:42;10.88;;;5.95;;
75589;SDS011;64169;47.240;11.312;2023-03-01T15:06:14;10.40;;;5.28;;
75589;SDS011;64169;47.240;11.312;2023-03-01T15:08:42;12.40;;;5.85;;
75589;SDS011;64169;47.240;11.312;2023-03-01T15:13:39;11.65;;;5.45;;
75589;SDS011;64169;47.240;11.312;2023-03-01T15:18:48;12.13;;;6.30;;
75589;SDS011;64169;47.240;11.312;2023-03-01T15:21:20;11.05;;;5.57;;
75589;SDS011;64169;47.240;11.312;2023-03-01T15:23:52;12.80;;;6.35;;
75589;SDS011;64169;47.240;11.312;2023-03-01T15:26:32;13.05;;;6.65;;
75589;SDS011;64169;47.240;11.312;2023-03-01T15:29:00;12.65;;;6.03;;
75589;SDS011;64169;47.240;11.312;2023-03-01T15:33:51;13.27;;;6.50;;
75589;SDS011;64169;47.240;11.312;2023-03-01T15:39:22;12.45;;;5.70;;
75589;SDS011;64169;47.240;11.312;2023-03-01T15:43:06;12.93;;;5.55;;
75589;SDS011;64169;47.240;11.312;2023-03-01T15:47:41;11.10;;;5.07;;
75589;SDS011;64169;47.240;11.312;2023-03-01T15:50:23;13.13;;;5.00;;
75589;SDS011;64169;47.240;11.312;2023-03-01T15:52:53;9.13;;;4.40;;
75589;SDS011;64169;47.240;11.312;2023-03-01T15:55:23;10.60;;;4.78;;
75589;SDS011;64169;47.240;11.312;2023-03-01T15:58:01;9.57;;;4.55;;
75589;SDS011;64169;47.240;11.312;2023-03-01T16:00:32;10.85;;;4.75;;
75589;SDS011;64169;47.240;11.312;2023-03-01T16:02:58;10.30;;;4.45;;
75589;SDS011;64169;47.240;11.312;2023-03-01T16:05:30;11.75;;;4.93;;
75589;SDS011;64169;47.240;11.312;2023-03-01T16:07:57;11.13;;;4.35;;
75589;SDS011;64169;47.240;11.312;2023-03-01T16:10:22;11.20;;;5.20;;
75589;SDS011;64169;47.240;11.312;2023-03-01T16:12:49;10.60;;;4.72;;
75589;SDS011;64169;47.240;11.312;2023-03-01T16:15:21;12.05;;;4.82;;
75589;SDS011;64169;47.240;11.312;2023-03-01T16:17:47;9.30;;;4.03;;
75589;SDS011;64169;47.240;11.312;2023-03-01T16:20:13;9.35;;;4.03;;
75589;SDS011;64169;47.240;11.312;2023-03-01T16:22:41;12.88;;;4.45;;
75589;SDS011;64169;47.240;11.312;2023-03-01T16:25:10;12.73;;;5.07;;
75589;SDS011;64169;47.240;11.312;2023-03-01T16:27:36;13.55;;;7.07;;
75589;SDS011;64169;47.240;11.312;2023-03-01T16:30:02;12.45;;;5.57;;
75589;SDS011;64169;47.240;11.312;2023-03-01T16:32:29;12.18;;;6.15;;
75589;SDS011;64169;47.240;11.312;2023-03-01T16:34:54;14.20;;;5.72;;
75589;SDS011;64169;47.240;11.312;2023-03-01T16:37:19;12.25;;;5.50;;
75589;SDS011;64169;47.240;11.312;2023-03-01T16:39:46;14.15;;;5.60;;
75589;SDS011;64169;47.240;11.312;2023-03-01T16:42:13;15.35;;;5.63;;
75589;SDS011;64169;47.240;11.312;2023-03-01T16:44:39;13.30;;;6.38;;
75589;SDS011;64169;47.240;11.312;2023-03-01T16:47:05;13.55;;;5.68;;
75589;SDS011;64169;47.240;11.312;2023-03-01T16:49:30;14.40;;;6.00;;
75589;SDS011;64169;47.240;11.312;2023-03-01T16:51:55;12.95;;;5.85;;
75589;SDS011;64169;47.240;11.312;2023-03-01T16:54:21;16.60;;;6.68;;
75589;SDS011;64169;47.240;11.312;2023-03-01T16:56:46;13.38;;;6.20;;
75589;SDS011;64169;47.240;11.312;2023-03-01T16:59:11;14.50;;;5.75;;
75589;SDS011;64169;47.240;11.312;2023-03-01T17:01:37;14.05;;;5.97;;
75589;SDS011;64169;47.240;11.312;2023-03-01T17:04:06;13.32;;;6.43;;
75589;SDS011;64169;47.240;11.312;2023-03-01T17:06:31;15.85;;;5.60;;
75589;SDS011;64169;47.240;11.312;2023-03-01T17:08:57;13.07;;;5.95;;
75589;SDS011;64169;47.240;11.312;2023-03-01T17:11:24;17.30;;;6.90;;